Time,TemperatureF,DewpointF,PressureIn,WindDirection,WindDirectionDegrees,WindSpeedMPH,WindSpeedGustMPH,Humidity,HourlyPrecipIn,Conditions,Clouds,dailyrainin,SolarRadiationWatts/m^2,SoftwareType,DateUTC
2013-10-06 00:02:00,52.0,4.0,-100.00,ESE,107,0.0,6.0,14,0.00,,,0.00,0.000000,,2013-10-06 07:02:00,
2013-10-06 00:11:00,52.0,4.0,-100.00,ESE,107,0.0,6.0,14,0.00,,,0.00,0.000000,,2013-10-06 07:11:00,
2013-10-06 00:22:00,52.0,4.0,-100.00,ESE,107,0.0,6.0,14,0.00,,,0.00,0.000000,,2013-10-06 07:22:00,
2013-10-06 00:52:00,52.0,3.0,-100.00,ENE,66,0.0,5.0,13,0.00,,,0.00,0.000000,,2013-10-06 07:52:00,
2013-10-06 01:02:00,52.0,3.0,-100.00,ENE,66,0.0,5.0,13,0.00,,,0.00,0.000000,,2013-10-06 08:02:00,
2013-10-06 01:11:00,52.0,3.0,-100.00,ENE,66,0.0,5.0,13,0.00,,,0.00,0.000000,,2013-10-06 08:11:00,
2013-10-06 01:21:00,52.0,3.0,-100.00,ENE,66,0.0,5.0,13,0.00,,,0.00,0.000000,,2013-10-06 08:21:00,
2013-10-06 01:53:00,50.0,4.0,-100.00,NE,56,0.0,4.0,15,0.00,,,0.00,0.000000,,2013-10-06 08:53:00,
2013-10-06 02:01:00,50.0,4.0,-100.00,NE,56,0.0,4.0,15,0.00,,,0.00,0.000000,,2013-10-06 09:01:00,
2013-10-06 02:22:00,50.0,4.0,-100.00,NE,56,0.0,4.0,15,0.00,,,0.00,0.000000,,2013-10-06 09:22:00,
2013-10-06 02:53:00,52.0,3.0,-100.00,East,84,1.0,5.0,13,-99.99,,,-99.99,0.000000,,2013-10-06 09:53:00,
2013-10-06 03:03:00,52.0,3.0,-100.00,East,84,1.0,5.0,13,-99.99,,,-99.99,0.000000,,2013-10-06 10:03:00,
2013-10-06 03:13:00,52.0,3.0,-100.00,East,84,1.0,5.0,13,-99.99,,,-99.99,0.000000,,2013-10-06 10:13:00,
2013-10-06 03:23:00,52.0,3.0,-100.00,East,84,1.0,5.0,13,-99.99,,,-99.99,0.000000,,2013-10-06 10:23:00,
2013-10-06 04:11:00,50.0,1.0,-100.00,ESE,106,0.0,6.0,13,0.00,,,0.00,0.000000,,2013-10-06 11:11:00,
2013-10-06 04:21:00,50.0,1.0,-100.00,ESE,106,0.0,6.0,13,0.00,,,0.00,0.000000,,2013-10-06 11:21:00,
2013-10-06 04:52:00,51.0,2.0,-100.00,ENE,71,1.0,6.0,13,0.00,,,0.00,0.000000,,2013-10-06 11:52:00,
2013-10-06 05:02:00,51.0,2.0,-100.00,ENE,71,1.0,6.0,13,0.00,,,0.00,0.000000,,2013-10-06 12:02:00,
2013-10-06 05:12:00,51.0,2.0,-100.00,ENE,71,1.0,6.0,13,0.00,,,0.00,0.000000,,2013-10-06 12:12:00,
2013-10-06 05:22:00,51.0,2.0,-100.00,ENE,71,1.0,6.0,13,0.00,,,0.00,0.000000,,2013-10-06 12:22:00,
2013-10-06 05:52:00,52.0,3.0,-100.00,East,79,5.0,9.0,13,0.00,,,0.00,0.000000,,2013-10-06 12:52:00,
2013-10-06 06:02:00,52.0,3.0,-100.00,East,79,5.0,9.0,13,0.00,,,0.00,0.000000,,2013-10-06 13:02:00,
2013-10-06 06:11:00,52.0,3.0,-100.00,East,79,5.0,9.0,13,0.00,,,0.00,0.000000,,2013-10-06 13:11:00,
2013-10-06 06:21:00,52.0,3.0,-100.00,East,79,5.0,9.0,13,0.00,,,0.00,0.000000,,2013-10-06 13:21:00,
2013-10-06 06:52:00,51.0,4.0,-100.00,East,97,5.0,9.0,14,0.00,,,0.00,0.000000,,2013-10-06 13:52:00,
2013-10-06 07:02:00,51.0,4.0,-100.00,East,97,5.0,9.0,14,0.00,,,0.00,0.000000,,2013-10-06 14:02:00,
2013-10-06 07:11:00,51.0,4.0,-100.00,East,97,5.0,9.0,14,0.00,,,0.00,0.000000,,2013-10-06 14:11:00,
2013-10-06 07:22:00,51.0,4.0,-100.00,East,97,5.0,9.0,14,0.00,,,0.00,0.000000,,2013-10-06 14:22:00,
2013-10-06 07:52:00,54.0,3.0,-100.00,ESE,118,4.0,9.0,12,0.00,,,0.00,12.000000,,2013-10-06 14:52:00,
2013-10-06 08:02:00,54.0,3.0,-100.00,ESE,118,4.0,9.0,12,0.00,,,0.00,12.000000,,2013-10-06 15:02:00,
2013-10-06 08:11:00,54.0,3.0,-100.00,ESE,118,4.0,9.0,12,0.00,,,0.00,12.000000,,2013-10-06 15:11:00,
2013-10-06 08:22:00,54.0,3.0,-100.00,ESE,118,4.0,9.0,12,0.00,,,0.00,12.000000,,2013-10-06 15:22:00,
2013-10-06 08:54:00,62.0,3.0,-100.00,ESE,104,4.0,9.0,9,0.00,,,0.00,194.000000,,2013-10-06 15:54:00,
2013-10-06 09:03:00,62.0,3.0,-100.00,ESE,104,4.0,9.0,9,0.00,,,0.00,194.000000,,2013-10-06 16:03:00,
2013-10-06 09:12:00,62.0,3.0,-100.00,ESE,104,4.0,9.0,9,0.00,,,0.00,194.000000,,2013-10-06 16:12:00,
2013-10-06 09:23:00,62.0,3.0,-100.00,ESE,104,4.0,9.0,9,0.00,,,0.00,194.000000,,2013-10-06 16:23:00,
2013-10-06 09:53:00,65.0,2.0,-100.00,SE,134,10.0,17.0,8,0.00,,,0.00,315.000000,,2013-10-06 16:53:00,
2013-10-06 10:02:00,65.0,2.0,-100.00,SE,134,10.0,17.0,8,0.00,,,0.00,315.000000,,2013-10-06 17:02:00,
2013-10-06 10:12:00,65.0,2.0,-100.00,SE,134,10.0,17.0,8,0.00,,,0.00,315.000000,,2013-10-06 17:12:00,
2013-10-06 10:22:00,65.0,2.0,-100.00,SE,134,10.0,17.0,8,0.00,,,0.00,315.000000,,2013-10-06 17:22:00,
2013-10-06 10:52:00,70.0,3.0,-100.00,SE,129,11.0,18.0,7,0.00,,,-99.99,241.000000,,2013-10-06 17:52:00,
2013-10-06 11:02:00,70.0,3.0,-100.00,SE,129,11.0,18.0,7,0.00,,,-99.99,241.000000,,2013-10-06 18:02:00,
2013-10-06 11:12:00,70.0,3.0,-100.00,SE,129,11.0,18.0,7,0.00,,,-99.99,241.000000,,2013-10-06 18:12:00,
2013-10-06 11:21:00,70.0,3.0,-100.00,SE,129,11.0,18.0,7,0.00,,,-99.99,241.000000,,2013-10-06 18:21:00,
2013-10-06 11:52:00,70.0,3.0,-100.00,SE,127,10.0,17.0,7,0.00,,,0.00,745.000000,,2013-10-06 18:52:00,
2013-10-06 12:01:00,70.0,3.0,-100.00,SE,127,10.0,17.0,7,0.00,,,0.00,745.000000,,2013-10-06 19:01:00,
2013-10-06 12:11:00,70.0,3.0,-100.00,SE,127,10.0,17.0,7,0.00,,,0.00,745.000000,,2013-10-06 19:11:00,
2013-10-06 12:22:00,70.0,3.0,-100.00,SE,127,10.0,17.0,7,0.00,,,0.00,745.000000,,2013-10-06 19:22:00,
2013-10-06 12:53:00,71.0,1.0,-100.00,SE,132,11.0,19.0,6,0.00,,,0.00,921.000000,,2013-10-06 19:53:00,
2013-10-06 13:02:00,71.0,1.0,-100.00,SE,132,11.0,19.0,6,0.00,,,0.00,921.000000,,2013-10-06 20:02:00,
2013-10-06 13:11:00,71.0,1.0,-100.00,SE,132,11.0,19.0,6,0.00,,,0.00,921.000000,,2013-10-06 20:11:00,
2013-10-06 13:22:00,71.0,1.0,-100.00,SE,132,11.0,19.0,6,0.00,,,0.00,921.000000,,2013-10-06 20:22:00,
2013-10-06 13:52:00,72.0,1.0,-100.00,ESE,123,9.0,16.0,6,0.00,,,0.00,946.000000,,2013-10-06 20:52:00,
2013-10-06 14:01:00,72.0,1.0,-100.00,ESE,123,9.0,16.0,6,0.00,,,0.00,946.000000,,2013-10-06 21:01:00,
2013-10-06 14:11:00,72.0,1.0,-100.00,ESE,123,9.0,16.0,6,0.00,,,0.00,946.000000,,2013-10-06 21:11:00,
2013-10-06 14:22:00,72.0,1.0,-100.00,ESE,123,9.0,16.0,6,0.00,,,0.00,946.000000,,2013-10-06 21:22:00,
2013-10-06 14:54:00,73.0,2.0,-100.00,SE,129,10.0,17.0,6,0.00,,,0.00,897.000000,,2013-10-06 21:54:00,
2013-10-06 15:03:00,73.0,2.0,-100.00,SE,129,10.0,17.0,6,0.00,,,0.00,897.000000,,2013-10-06 22:03:00,
2013-10-06 15:13:00,73.0,2.0,-100.00,SE,129,10.0,17.0,6,0.00,,,0.00,897.000000,,2013-10-06 22:13:00,
2013-10-06 15:24:00,73.0,2.0,-100.00,SE,129,10.0,17.0,6,0.00,,,0.00,897.000000,,2013-10-06 22:24:00,
2013-10-06 15:53:00,74.0,6.0,-100.00,SE,124,10.0,16.0,7,0.00,,,0.00,776.000000,,2013-10-06 22:53:00,
2013-10-06 16:03:00,74.0,6.0,-100.00,SE,124,10.0,16.0,7,0.00,,,0.00,776.000000,,2013-10-06 23:03:00,
2013-10-06 16:12:00,74.0,6.0,-100.00,SE,124,10.0,16.0,7,0.00,,,0.00,776.000000,,2013-10-06 23:12:00,
2013-10-06 16:22:00,74.0,6.0,-100.00,SE,124,10.0,16.0,7,0.00,,,0.00,776.000000,,2013-10-06 23:22:00,
2013-10-06 16:53:00,72.0,5.0,-100.00,SE,127,10.0,16.0,7,0.00,,,0.00,593.000000,,2013-10-06 23:53:00,
2013-10-06 17:02:00,72.0,5.0,-100.00,SE,127,10.0,16.0,7,0.00,,,0.00,593.000000,,2013-10-07 00:02:00,
2013-10-06 17:12:00,72.0,5.0,-100.00,SE,127,10.0,16.0,7,0.00,,,0.00,593.000000,,2013-10-07 00:12:00,
2013-10-06 17:22:00,72.0,5.0,-100.00,SE,127,10.0,16.0,7,0.00,,,0.00,593.000000,,2013-10-07 00:22:00,
2013-10-06 17:52:00,68.0,2.0,-100.00,SE,127,7.0,13.0,7,0.00,,,0.00,342.000000,,2013-10-07 00:52:00,
2013-10-06 18:02:00,68.0,2.0,-100.00,SE,127,7.0,13.0,7,0.00,,,0.00,342.000000,,2013-10-07 01:02:00,
2013-10-06 18:11:00,68.0,2.0,-100.00,SE,127,7.0,13.0,7,0.00,,,0.00,342.000000,,2013-10-07 01:11:00,
2013-10-06 18:21:00,68.0,2.0,-100.00,SE,127,7.0,13.0,7,0.00,,,0.00,342.000000,,2013-10-07 01:21:00,
2013-10-06 18:53:00,59.0,0.0,-100.00,SE,125,0.0,7.0,9,0.00,,,0.00,17.000000,,2013-10-07 01:53:00,
2013-10-06 19:02:00,59.0,0.0,-100.00,SE,125,0.0,7.0,9,0.00,,,0.00,17.000000,,2013-10-07 02:02:00,
2013-10-06 19:12:00,59.0,0.0,-100.00,SE,125,0.0,7.0,9,0.00,,,0.00,17.000000,,2013-10-07 02:12:00,
2013-10-06 19:22:00,59.0,0.0,-100.00,SE,125,0.0,7.0,9,0.00,,,0.00,17.000000,,2013-10-07 02:22:00,
2013-10-06 19:53:00,56.0,0.0,-100.00,NE,45,0.0,6.0,10,0.00,,,0.00,0.000000,,2013-10-07 02:53:00,
2013-10-06 20:02:00,56.0,0.0,-100.00,NE,45,0.0,6.0,10,0.00,,,0.00,0.000000,,2013-10-07 03:02:00,
2013-10-06 20:22:00,56.0,0.0,-100.00,NE,45,0.0,6.0,10,0.00,,,0.00,0.000000,,2013-10-07 03:22:00,
2013-10-06 22:52:00,56.0,-2.0,-100.00,NE,50,2.0,6.0,9,-99.99,,,0.00,0.000000,,2013-10-07 05:52:00,
2013-10-06 23:03:00,56.0,-2.0,-100.00,NE,50,2.0,6.0,9,-99.99,,,0.00,0.000000,,2013-10-07 06:03:00,
2013-10-06 23:12:00,56.0,-2.0,-100.00,NE,50,2.0,6.0,9,-99.99,,,0.00,0.000000,,2013-10-07 06:12:00,
2013-10-06 23:21:00,56.0,-2.0,-100.00,NE,50,2.0,6.0,9,-99.99,,,0.00,0.000000,,2013-10-07 06:21:00,